Regional Weather

 

KCRX - Corinth, Mississippi, USA
Distance from station: SW 29mi, 47km
Updated: Wed, 30-Nov-2022 8:15pm CST
Clear
Clear
 Wind from calm
Wind: Calm
Temperature: 37°F , 3°C
Dew Point: 25°F , -4°C
Humidity: 60%
Barometer: 30.44 inHg , 1030.8 hPa
Clouds: Clear
Visibility: 10 miles , 16 km
2022/12/01 02:15 KCRX 010215Z AUTO 00000KT 10SM CLR 03/M04 A3044 RMK AO2
KMKL - Jackson, Tennessee, USA
Distance from station: NW 46mi, 73km
Updated: Wed, 30-Nov-2022 7:53pm CST
Clear
Clear
 Wind from calm
Wind: Calm
Temperature: 28°F , -2°C
Dew Point: 25°F , -4°C
Humidity: 86%
Barometer: 30.44 inHg , 1030.8 hPa
Clouds: Clear
Visibility: 10 miles , 16 km
2022/12/01 01:53 KMKL 010153Z AUTO 00000KT 10SM CLR M02/M04 A3044 RMK AO2 SLP312 T10221044
 
KMSL - Muscle Shoal, Alabama, USA
Distance from station: SE 49mi, 79km
Updated: Wed, 30-Nov-2022 12:53am CST
NOT Current
Heavy rain, Mist, Overcast
Heavy rain, Mist, Overcast
 Wind from W
Wind: W 10 mph , 17 km/h
Temperature: 64°F , 18°C
Dew Point: 63°F , 17°C
Humidity: 94%
Barometer: 29.80 inHg , 1009.1 hPa
Summary: Heavy rain, Mist
Clouds: Overcast
Visibility: 3 miles , 5 km
Cloud details: Few Clouds 3000 ft
Mostly cloudy 7000 ft
Overcast 10000 ft
2022/11/30 06:53 KMSL 300653Z AUTO 28009KT 3SM +RA BR FEW030 BKN070 OVC100 18/17 A2980 RMK AO2 TSE0557B00E15 SLP085 P0016 T01830167
KTUP - Tupelo, Mississippi, USA
Distance from station: SSW 72mi, 117km
Updated: Wed, 30-Nov-2022 7:53pm CST
Clear
Clear
 Wind from NNW
Wind: NNW 6 mph , 9 km/h
Temperature: 41°F , 5°C
Wind Chill: 37°F , 3°C
Dew Point: 21°F , -6°C
Humidity: 45%
Barometer: 30.43 inHg , 1030.5 hPa
Clouds: Clear
Visibility: 10 miles , 16 km
2022/12/01 01:53 KTUP 010153Z 33005KT 10SM CLR 05/M06 A3043 RMK AO2 SLP305 T00501056
 
KHSV - Huntsville, Alabama, USA
Distance from station: ESE 92mi, 148km
Updated: Wed, 30-Nov-2022 7:53pm CST
Clear
Clear
 Wind from NNW
Wind: NNW 5 mph , 7 km/h
Temperature: 39°F , 4°C
Wind Chill: 35°F , 2°C
Dew Point: 25°F , -4°C
Humidity: 56%
Barometer: 30.39 inHg , 1029.1 hPa
Clouds: Clear
Visibility: 10 miles , 16 km
2022/12/01 01:53 KHSV 010153Z 34004KT 10SM CLR 04/M04 A3039 RMK SLP291 T00441039
KBNA - Nashville, TN, USA
Distance from station: NE 97mi, 157km
Updated: Wed, 30-Nov-2022 7:53pm CST
Clear
Clear
 Wind from NW
Wind: NW 6 mph , 9 km/h
Temperature: 39°F , 4°C
Wind Chill: 35°F , 2°C
Dew Point: 18°F , -8°C
Humidity: 42%
Barometer: 30.42 inHg , 1030.1 hPa
Clouds: Clear
Visibility: 10 miles , 16 km
2022/12/01 01:53 KBNA 010153Z 32005KT 10SM CLR 04/M08 A3042 RMK AO2 SLP304 T00391078 $
 
KMEM - Memphis, Tennessee, USA
Distance from station: W 99mi, 159km
Updated: Wed, 30-Nov-2022 7:54pm CST
Clear
Clear
 Wind from calm
Wind: Calm
Temperature: 36°F , 2°C
Dew Point: 27°F , -3°C
Humidity: 70%
Barometer: 30.44 inHg , 1030.8 hPa
Clouds: Clear
Visibility: 10 miles , 16 km
2022/12/01 01:54 KMEM 010154Z 00000KT 10SM CLR 02/M03 A3044 RMK AO2 SLP310 T00221033
KCKV - Clarksville, TN, USA
Distance from station: NNE 99mi, 159km
Updated: Wed, 30-Nov-2022 7:52pm CST
Clear
Clear
 Wind from W
Wind: W 5 mph , 7 km/h
Temperature: 34°F , 1°C
Wind Chill: 29°F , -2°C
Dew Point: 19°F , -7°C
Humidity: 56%
Barometer: 30.41 inHg , 1029.8 hPa
Clouds: Clear
Visibility: 10 miles , 16 km
2022/12/01 01:52 KCKV 010152Z AUTO 28004KT 10SM CLR 01/M07 A3041 RMK AO2 SLP302 T00111072
 
KCHA - Chattanooga, TN, USA
Distance from station: E 165mi, 265km
Updated: Wed, 30-Nov-2022 7:53pm CST
Clear
Clear
 Wind from NNW
Wind: NNW 8 mph , 13 km/h
Temperature: 41°F , 5°C
Wind Chill: 36°F , 2°C
Dew Point: 25°F , -4°C
Humidity: 53%
Barometer: 30.37 inHg , 1028.4 hPa
Clouds: Clear
Visibility: 10 miles , 16 km
2022/12/01 01:53 KCHA 010153Z 33007KT 10SM CLR 05/M04 A3037 RMK AO2 SLP285 T00501044 $
KTYS - Knoxville, TN, USA
Distance from station: E 234mi, 377km
Updated: Wed, 30-Nov-2022 7:53pm CST
Clear
Clear
 Wind from W
Wind: W 7 mph , 11 km/h
Temperature: 39°F , 4°C
Wind Chill: 34°F , 1°C
Dew Point: 21°F , -6°C
Humidity: 48%
Barometer: 30.35 inHg , 1027.8 hPa
Clouds: Clear
Visibility: 10 miles , 16 km
2022/12/01 01:53 KTYS 010153Z 26006KT 10SM CLR 04/M06 A3035 RMK AO2 SLP277 T00391061

Refresh Page for latest data.